createdAt,value
2018-05-07T00:01:03.160Z,0
2018-05-07T00:02:11.182Z,0
2018-05-07T00:03:19.235Z,0
2018-05-07T00:04:27.283Z,0
2018-05-07T00:05:35.352Z,0
2018-05-07T00:06:43.419Z,0
2018-05-07T00:07:51.507Z,0
2018-05-07T00:08:59.532Z,0
2018-05-07T00:10:07.598Z,0
2018-05-07T00:11:15.663Z,0
2018-05-07T00:12:23.732Z,0
2018-05-07T00:13:31.783Z,0
2018-05-07T00:14:39.843Z,0
2018-05-07T00:15:47.909Z,0
2018-05-07T00:16:55.980Z,0
2018-05-07T00:18:04.040Z,0
2018-05-07T00:19:12.062Z,0
2018-05-07T00:20:20.153Z,0
2018-05-07T00:21:28.212Z,0
2018-05-07T00:22:36.337Z,0
2018-05-07T00:23:44.341Z,0
2018-05-07T00:24:52.410Z,0
2018-05-07T00:26:00.469Z,0
2018-05-07T00:27:08.527Z,0
2018-05-07T00:28:16.590Z,0
2018-05-07T00:29:24.657Z,0
2018-05-07T00:30:32.759Z,0
2018-05-07T00:31:40.781Z,0
2018-05-07T00:32:48.835Z,0
2018-05-07T00:33:56.896Z,0
2018-05-07T00:35:04.965Z,0
2018-05-07T00:36:13.024Z,0
2018-05-07T00:37:21.086Z,0
2018-05-07T00:38:29.138Z,0
2018-05-07T00:39:37.202Z,0
2018-05-07T00:40:45.264Z,0
2018-05-07T00:41:53.322Z,0
2018-05-07T00:43:01.363Z,0
2018-05-07T00:44:09.453Z,0
2018-05-07T00:45:17.521Z,0
2018-05-07T00:46:25.583Z,0
2018-05-07T00:47:33.643Z,0
2018-05-07T00:48:41.673Z,0
2018-05-07T00:49:49.767Z,0
2018-05-07T00:50:57.826Z,0
2018-05-07T00:52:05.877Z,0
2018-05-07T00:53:13.944Z,0
2018-05-07T00:54:21.982Z,0
2018-05-07T00:55:30.067Z,0
2018-05-07T00:56:38.125Z,0
2018-05-07T00:57:46.192Z,0
2018-05-07T00:58:54.244Z,0
2018-05-07T01:00:02.305Z,0
2018-05-07T01:01:10.377Z,0
2018-05-07T01:02:18.442Z,0
2018-05-07T01:03:26.500Z,0
2018-05-07T01:04:34.548Z,0
2018-05-07T01:05:42.619Z,0
2018-05-07T01:06:50.697Z,0
2018-05-07T01:07:58.747Z,0
2018-05-07T01:09:06.806Z,0
2018-05-07T01:10:14.862Z,0
2018-05-07T01:11:22.936Z,0
2018-05-07T01:12:30.981Z,0
2018-05-07T01:13:39.049Z,0
2018-05-07T01:14:47.141Z,0
2018-05-07T01:15:55.175Z,0
2018-05-07T01:17:03.241Z,0
2018-05-07T01:18:11.304Z,0
2018-05-07T01:19:19.354Z,0
2018-05-07T01:20:27.414Z,0
2018-05-07T01:21:35.480Z,0
2018-05-07T01:22:43.533Z,0
2018-05-07T01:23:51.575Z,0
2018-05-07T01:24:59.662Z,0
2018-05-07T01:26:07.719Z,0
2018-05-07T01:27:15.780Z,0
2018-05-07T01:28:23.863Z,0
2018-05-07T01:29:31.890Z,0
2018-05-07T01:30:39.970Z,0
2018-05-07T01:31:48.034Z,0
2018-05-07T01:32:56.101Z,0
2018-05-07T01:34:04.160Z,0
2018-05-07T01:35:12.204Z,0
2018-05-07T01:36:20.280Z,0
2018-05-07T01:37:28.382Z,0
2018-05-07T01:38:36.414Z,0
2018-05-07T01:39:44.463Z,0
2018-05-07T01:40:52.530Z,0
2018-05-07T01:42:00.583Z,0
2018-05-07T01:43:08.654Z,0
2018-05-07T01:44:16.722Z,0
2018-05-07T01:45:24.773Z,0
2018-05-07T01:46:32.843Z,0
2018-05-07T01:47:40.893Z,0
2018-05-07T01:48:48.960Z,0
2018-05-07T01:49:57.024Z,0
2018-05-07T01:51:05.092Z,0
2018-05-07T01:52:13.140Z,0
2018-05-07T01:53:21.199Z,0
2018-05-07T01:54:29.258Z,0
2018-05-07T01:55:37.333Z,0
2018-05-07T01:56:45.390Z,0
2018-05-07T01:57:53.450Z,0
2018-05-07T01:59:01.488Z,0
2018-05-07T02:00:09.582Z,0
2018-05-07T02:01:17.646Z,0
2018-05-07T02:02:25.704Z,0
2018-05-07T02:03:33.773Z,0
2018-05-07T02:04:41.791Z,0
2018-05-07T02:05:49.885Z,0
2018-05-07T02:06:57.931Z,0
2018-05-07T02:08:06.017Z,0
2018-05-07T02:09:14.067Z,0
2018-05-07T02:10:22.097Z,0
2018-05-07T02:11:30.187Z,0
2018-05-07T02:12:38.255Z,0
2018-05-07T02:13:46.289Z,0
2018-05-07T02:14:54.361Z,0
2018-05-07T02:16:02.413Z,0
2018-05-07T02:17:10.480Z,0
2018-05-07T02:18:18.559Z,0
2018-05-07T02:19:26.624Z,0
2018-05-07T02:20:34.684Z,0
2018-05-07T02:21:42.735Z,0
2018-05-07T02:22:50.802Z,0
2018-05-07T02:23:58.864Z,0
2018-05-07T02:25:06.914Z,0
2018-05-07T02:26:14.984Z,0
2018-05-07T02:27:23.044Z,0
2018-05-07T02:28:31.099Z,0
2018-05-07T02:29:39.166Z,0
2018-05-07T02:30:47.224Z,0
2018-05-07T02:31:55.277Z,0
2018-05-07T02:33:03.357Z,0
2018-05-07T02:34:11.390Z,0
2018-05-07T02:35:19.478Z,0
2018-05-07T02:36:27.530Z,0
2018-05-07T02:37:35.609Z,0
2018-05-07T02:38:43.690Z,0
2018-05-07T02:39:51.694Z,0
2018-05-07T02:40:59.789Z,0
2018-05-07T02:42:07.839Z,0
2018-05-07T02:43:15.904Z,0
2018-05-07T02:44:23.962Z,0
2018-05-07T02:45:31.995Z,0
2018-05-07T02:46:40.080Z,0
2018-05-07T02:47:48.147Z,0
2018-05-07T02:48:56.197Z,0
2018-05-07T02:50:04.273Z,0
2018-05-07T02:51:12.334Z,0
2018-05-07T02:52:20.391Z,0
2018-05-07T02:53:28.438Z,0
2018-05-07T02:54:36.508Z,0
2018-05-07T02:55:44.580Z,0
2018-05-07T02:56:52.629Z,0
2018-05-07T02:58:00.701Z,0
2018-05-07T02:59:08.767Z,0
2018-05-07T03:00:16.827Z,0
2018-05-07T03:01:24.875Z,0
2018-05-07T03:02:32.942Z,0
2018-05-07T03:03:41.009Z,0
2018-05-07T03:04:49.070Z,0
2018-05-07T03:05:57.129Z,0
2018-05-07T03:07:05.193Z,0
2018-05-07T03:08:13.243Z,0
2018-05-07T03:09:21.316Z,0
2018-05-07T03:10:29.369Z,0
2018-05-07T03:11:37.430Z,0
2018-05-07T03:12:45.486Z,0
2018-05-07T03:13:53.569Z,0
2018-05-07T03:15:01.582Z,0
2018-05-07T03:16:09.681Z,0
2018-05-07T03:17:17.738Z,0
2018-05-07T03:18:25.794Z,0
2018-05-07T03:19:33.849Z,0
2018-05-07T03:20:41.899Z,0
2018-05-07T03:21:49.981Z,0
2018-05-07T03:22:58.043Z,0
2018-05-07T03:24:06.088Z,0
2018-05-07T03:25:14.156Z,0
2018-05-07T03:26:22.213Z,0
2018-05-07T03:27:30.300Z,0
2018-05-07T03:28:38.352Z,0
2018-05-07T03:29:46.410Z,0
2018-05-07T03:30:54.462Z,0
2018-05-07T03:32:02.535Z,0
2018-05-07T03:33:10.598Z,0
2018-05-07T03:34:18.652Z,0
2018-05-07T03:35:26.709Z,0
2018-05-07T03:36:34.780Z,0
2018-05-07T03:37:42.826Z,0
2018-05-07T03:38:50.900Z,0
2018-05-07T03:39:58.980Z,0
2018-05-07T03:41:07.018Z,0
2018-05-07T03:42:15.069Z,0
2018-05-07T03:43:23.130Z,0
2018-05-07T03:44:31.192Z,0
2018-05-07T03:45:39.262Z,0
2018-05-07T03:46:47.313Z,0
2018-05-07T03:47:55.411Z,0
2018-05-07T03:49:03.443Z,0
2018-05-07T03:50:11.487Z,0
2018-05-07T03:51:19.568Z,0
2018-05-07T03:52:27.619Z,5
2018-05-07T03:53:35.685Z,5
2018-05-07T03:54:43.747Z,5
2018-05-07T03:55:51.774Z,5
2018-05-07T03:56:59.868Z,5
2018-05-07T03:58:07.925Z,5
2018-05-07T03:59:15.996Z,5
2018-05-07T04:00:24.057Z,10
2018-05-07T04:01:32.087Z,10
2018-05-07T04:02:40.192Z,10
2018-05-07T04:03:48.242Z,10
2018-05-07T04:04:56.296Z,10
2018-05-07T04:06:04.361Z,15
2018-05-07T04:07:12.408Z,15
2018-05-07T04:08:20.482Z,15
2018-05-07T04:09:28.537Z,15
2018-05-07T04:10:36.592Z,15
2018-05-07T04:11:44.656Z,20
2018-05-07T04:12:52.718Z,20
2018-05-07T04:14:00.821Z,20
2018-05-07T04:15:08.839Z,20
2018-05-07T04:16:16.903Z,20
2018-05-07T04:17:24.964Z,25
2018-05-07T04:18:33.024Z,25
2018-05-07T04:19:41.076Z,25
2018-05-07T04:20:49.152Z,25
2018-05-07T04:21:57.206Z,30
2018-05-07T04:23:05.263Z,30
2018-05-07T04:24:13.332Z,30
2018-05-07T04:25:21.368Z,30
2018-05-07T04:26:29.445Z,35
2018-05-07T04:27:37.493Z,35
2018-05-07T04:28:45.551Z,35
2018-05-07T04:29:53.634Z,35
2018-05-07T04:31:01.671Z,40
2018-05-07T04:32:09.748Z,40
2018-05-07T04:33:18.210Z,40
2018-05-07T04:34:25.862Z,40
2018-05-07T04:35:33.944Z,45
2018-05-07T04:36:41.974Z,45
2018-05-07T04:37:50.053Z,45
2018-05-07T04:38:58.346Z,45
2018-05-07T04:40:06.174Z,50
2018-05-07T04:41:14.238Z,50
2018-05-07T04:42:22.616Z,50
2018-05-07T04:43:30.354Z,50
2018-05-07T04:44:38.674Z,50
2018-05-07T04:45:46.464Z,55
2018-05-07T04:46:54.529Z,55
2018-05-07T04:48:02.598Z,55
2018-05-07T04:49:10.727Z,55
2018-05-07T04:50:18.717Z,60
2018-05-07T04:51:26.785Z,60
2018-05-07T04:52:34.843Z,60
2018-05-07T04:53:42.993Z,65
2018-05-07T04:54:50.965Z,65
2018-05-07T04:55:59.027Z,65
2018-05-07T04:57:07.075Z,65
2018-05-07T04:58:15.152Z,65
2018-05-07T04:59:23.195Z,70
2018-05-07T05:00:31.276Z,70
2018-05-07T05:01:39.343Z,70
2018-05-07T05:02:47.391Z,70
2018-05-07T05:03:55.444Z,70
2018-05-07T05:05:04.163Z,75
2018-05-07T05:06:12.204Z,75
2018-05-07T05:07:19.646Z,75
2018-05-07T05:08:27.704Z,80
2018-05-07T05:09:35.754Z,80
2018-05-07T05:10:43.816Z,80
2018-05-07T05:11:51.857Z,80
2018-05-07T05:12:59.931Z,80
2018-05-07T05:14:07.998Z,80
2018-05-07T05:15:16.058Z,80
2018-05-07T05:16:24.132Z,85
2018-05-07T05:17:32.163Z,85
2018-05-07T05:18:40.236Z,85
2018-05-07T05:19:48.313Z,85
2018-05-07T05:20:56.370Z,90
2018-05-07T05:22:04.421Z,95
2018-05-07T05:23:12.491Z,140
2018-05-07T05:24:20.567Z,110
2018-05-07T05:25:28.614Z,100
2018-05-07T05:26:36.679Z,95
2018-05-07T05:27:44.744Z,90
2018-05-07T05:28:52.807Z,105
2018-05-07T05:30:00.868Z,100
2018-05-07T05:31:08.913Z,95
2018-05-07T05:32:16.983Z,100
2018-05-07T05:33:25.039Z,110
2018-05-07T05:34:33.106Z,100
2018-05-07T05:35:41.163Z,95
2018-05-07T05:36:49.210Z,95
2018-05-07T05:37:57.280Z,95
2018-05-07T05:39:05.349Z,95
2018-05-07T05:40:13.403Z,95
2018-05-07T05:41:21.454Z,100
2018-05-07T05:42:29.528Z,100
2018-05-07T05:43:37.739Z,100
2018-05-07T05:44:45.668Z,100
2018-05-07T05:45:53.727Z,100
2018-05-07T05:47:01.759Z,100
2018-05-07T05:48:09.844Z,100
2018-05-07T05:49:17.905Z,100
2018-05-07T05:50:25.956Z,100
2018-05-07T05:51:34.022Z,100
2018-05-07T05:52:42.049Z,105
2018-05-07T05:53:50.137Z,105
2018-05-07T05:54:58.196Z,105
2018-05-07T05:56:06.244Z,105
2018-05-07T05:57:14.360Z,105
2018-05-07T05:58:22.366Z,105
2018-05-07T05:59:30.453Z,110
2018-05-07T06:00:38.497Z,110
2018-05-07T06:01:46.582Z,110
2018-05-07T06:02:54.627Z,110
2018-05-07T06:04:02.714Z,110
2018-05-07T06:05:10.746Z,110
2018-05-07T06:06:18.826Z,110
2018-05-07T06:07:26.880Z,110
2018-05-07T06:08:34.959Z,115
2018-05-07T06:09:42.996Z,115
2018-05-07T06:10:51.062Z,115
2018-05-07T06:11:59.110Z,115
2018-05-07T06:13:07.188Z,115
2018-05-07T06:14:15.241Z,115
2018-05-07T06:15:23.329Z,115
2018-05-07T06:16:31.358Z,120
2018-05-07T06:17:39.426Z,120
2018-05-07T06:18:47.523Z,115
2018-05-07T06:19:55.565Z,120
2018-05-07T06:21:03.618Z,120
2018-05-07T06:22:11.665Z,120
2018-05-07T06:23:19.747Z,120
2018-05-07T06:24:27.823Z,120
2018-05-07T06:25:35.877Z,120
2018-05-07T06:26:43.938Z,120
2018-05-07T06:27:51.962Z,125
2018-05-07T06:29:00.060Z,125
2018-05-07T06:30:08.110Z,125
2018-05-07T06:31:16.174Z,125
2018-05-07T06:32:24.249Z,125
2018-05-07T06:33:32.329Z,125
2018-05-07T06:34:40.368Z,130
2018-05-07T06:35:48.426Z,130
2018-05-07T06:36:56.491Z,130
2018-05-07T06:38:04.559Z,130
2018-05-07T06:39:12.616Z,130
2018-05-07T06:40:20.685Z,135
2018-05-07T06:41:28.734Z,135
2018-05-07T06:42:36.812Z,145
2018-05-07T06:43:44.868Z,135
2018-05-07T06:44:52.920Z,135
2018-05-07T06:46:01.057Z,135
2018-05-07T06:47:09.064Z,135
2018-05-07T06:48:17.131Z,135
2018-05-07T06:49:25.166Z,135
2018-05-07T06:50:33.261Z,135
2018-05-07T06:51:41.311Z,135
2018-05-07T06:52:49.360Z,140
2018-05-07T06:53:57.428Z,140
2018-05-07T06:55:05.488Z,140
2018-05-07T06:56:13.578Z,140
2018-05-07T06:57:21.593Z,140
2018-05-07T06:58:29.676Z,140
2018-05-07T06:59:37.733Z,145
2018-05-07T07:00:45.837Z,145
2018-05-07T07:01:53.863Z,145
2018-05-07T07:03:01.955Z,145
2018-05-07T07:04:09.996Z,150
2018-05-07T07:05:18.048Z,150
2018-05-07T07:06:26.127Z,150
2018-05-07T07:07:34.183Z,145
2018-05-07T07:08:42.325Z,160
2018-05-07T07:09:50.309Z,200
2018-05-07T07:10:58.370Z,170
2018-05-07T07:12:06.431Z,170
2018-05-07T07:13:14.494Z,190
2018-05-07T07:14:22.567Z,165
2018-05-07T07:15:30.617Z,190
2018-05-07T07:16:38.686Z,205
2018-05-07T07:17:46.757Z,310
2018-05-07T07:18:54.837Z,420
2018-05-07T07:20:02.877Z,460
2018-05-07T07:21:10.934Z,480
2018-05-07T07:22:19.001Z,910
2018-05-07T07:23:27.085Z,565
2018-05-07T07:24:35.122Z,1190
2018-05-07T07:25:43.206Z,665
2018-05-07T07:26:51.259Z,880
2018-05-07T07:27:59.355Z,980
2018-05-07T07:29:07.399Z,865
2018-05-07T07:30:15.489Z,1115
2018-05-07T07:31:23.526Z,1105
2018-05-07T07:32:31.595Z,785
2018-05-07T07:33:39.727Z,580
2018-05-07T07:34:47.743Z,730
2018-05-07T07:35:55.813Z,610
2018-05-07T07:37:03.884Z,245
2018-05-07T07:38:11.918Z,480
2018-05-07T07:39:20.083Z,1005
2018-05-07T07:40:28.112Z,765
2018-05-07T07:41:36.166Z,310
2018-05-07T07:42:44.231Z,185
2018-05-07T07:43:52.268Z,185
2018-05-07T07:45:00.356Z,185
2018-05-07T07:46:08.444Z,230
2018-05-07T07:47:16.565Z,565
2018-05-07T07:48:24.566Z,825
2018-05-07T07:49:32.639Z,685
2018-05-07T07:50:40.719Z,435
2018-05-07T07:51:48.825Z,710
2018-05-07T07:52:56.857Z,1075
2018-05-07T07:54:04.927Z,1230
2018-05-07T07:55:13.000Z,1365
2018-05-07T07:56:21.056Z,1465
2018-05-07T07:57:29.128Z,1470
2018-05-07T07:58:37.197Z,1560
2018-05-07T07:59:45.295Z,1750
2018-05-07T08:00:53.365Z,1565
2018-05-07T08:02:01.411Z,1560
2018-05-07T08:03:09.480Z,1625
2018-05-07T08:04:17.672Z,1390
2018-05-07T08:05:25.635Z,1370
2018-05-07T08:06:33.741Z,1650
2018-05-07T08:07:41.769Z,1875
2018-05-07T08:08:49.876Z,2035
2018-05-07T08:09:57.940Z,2010
2018-05-07T08:11:06.040Z,1885
2018-05-07T08:12:14.103Z,1905
2018-05-07T08:13:22.167Z,2060
2018-05-07T08:14:30.262Z,2095
2018-05-07T08:15:38.315Z,2085
2018-05-07T08:16:46.416Z,1905
2018-05-07T08:17:54.488Z,1765
2018-05-07T08:19:02.560Z,1910
2018-05-07T08:20:10.645Z,1845
2018-05-07T08:21:18.709Z,1820
2018-05-07T08:22:26.804Z,2015
2018-05-07T08:23:34.871Z,1930
2018-05-07T08:24:42.950Z,1980
2018-05-07T08:25:51.033Z,1950
2018-05-07T08:26:59.143Z,2095
2018-05-07T08:28:07.184Z,1955
2018-05-07T08:29:15.275Z,1795
2018-05-07T08:30:23.393Z,1580
2018-05-07T08:31:31.413Z,1620
2018-05-07T08:32:39.525Z,1960
2018-05-07T08:33:47.618Z,1970
2018-05-07T08:34:55.673Z,2080
2018-05-07T08:36:03.753Z,1920
2018-05-07T08:37:11.806Z,1725
2018-05-07T08:38:19.904Z,1775
2018-05-07T08:39:27.986Z,1790
2018-05-07T08:40:36.080Z,1810
2018-05-07T08:41:44.156Z,2035
2018-05-07T08:42:52.228Z,2040
2018-05-07T08:44:00.306Z,2035
2018-05-07T08:45:08.390Z,1790
2018-05-07T08:46:16.463Z,1300
2018-05-07T08:47:24.557Z,1290
2018-05-07T08:48:32.632Z,1535
2018-05-07T08:49:40.743Z,1505
2018-05-07T08:50:48.833Z,1455
2018-05-07T08:51:56.877Z,1555
2018-05-07T08:53:05.028Z,1525
2018-05-07T08:54:13.040Z,1720
2018-05-07T08:55:21.125Z,1590
2018-05-07T08:56:29.185Z,830
2018-05-07T08:57:37.264Z,420
2018-05-07T08:58:45.352Z,375
2018-05-07T08:59:53.448Z,340
2018-05-07T09:01:01.491Z,285
2018-05-07T09:02:09.630Z,235
2018-05-07T09:03:17.681Z,215
2018-05-07T09:04:25.759Z,200
2018-05-07T09:05:33.836Z,185
2018-05-07T09:06:41.896Z,185
2018-05-07T09:07:50.000Z,180
2018-05-07T09:08:58.067Z,180
2018-05-07T09:10:06.149Z,180
2018-05-07T09:11:14.214Z,180
2018-05-07T09:12:22.296Z,180
2018-05-07T09:13:30.438Z,180
2018-05-07T09:14:38.457Z,185
2018-05-07T09:15:46.553Z,180
2018-05-07T09:16:54.622Z,180
2018-05-07T09:18:02.678Z,180
2018-05-07T09:19:10.778Z,180
2018-05-07T09:20:18.827Z,180
2018-05-07T09:21:26.909Z,180
2018-05-07T09:22:34.981Z,175
2018-05-07T09:23:43.044Z,175
2018-05-07T09:24:51.154Z,175
2018-05-07T09:25:59.191Z,175
2018-05-07T09:27:07.273Z,175
2018-05-07T09:28:15.336Z,175
2018-05-07T09:29:23.404Z,175
2018-05-07T09:30:31.469Z,175
2018-05-07T09:31:39.620Z,175
2018-05-07T09:32:47.608Z,175
2018-05-07T09:33:55.689Z,175
2018-05-07T09:35:03.771Z,175
2018-05-07T09:36:11.808Z,175
2018-05-07T09:37:19.912Z,175
2018-05-07T09:38:27.963Z,175
2018-05-07T09:39:36.050Z,175
2018-05-07T09:40:44.111Z,175
2018-05-07T09:41:52.152Z,175
2018-05-07T09:43:00.346Z,175
2018-05-07T09:44:08.330Z,175
2018-05-07T09:45:16.396Z,175
2018-05-07T09:46:24.469Z,175
2018-05-07T09:47:32.524Z,175
2018-05-07T09:48:40.591Z,175
2018-05-07T09:49:48.655Z,175
2018-05-07T09:50:56.744Z,175
2018-05-07T09:52:04.815Z,175
2018-05-07T09:53:12.887Z,175
2018-05-07T09:54:20.974Z,175
2018-05-07T09:55:29.020Z,175
2018-05-07T09:56:37.089Z,175
2018-05-07T09:57:45.152Z,170
2018-05-07T09:58:53.218Z,175
2018-05-07T10:00:01.288Z,175
2018-05-07T10:01:09.365Z,175
2018-05-07T10:02:17.440Z,175
2018-05-07T10:03:25.507Z,170
2018-05-07T10:04:33.569Z,170
2018-05-07T10:05:41.610Z,170
2018-05-07T10:06:49.711Z,170
2018-05-07T10:07:57.773Z,170
2018-05-07T10:09:05.846Z,170
2018-05-07T10:10:13.909Z,170
2018-05-07T10:11:21.968Z,170
2018-05-07T10:12:30.051Z,170
2018-05-07T10:13:38.121Z,170
2018-05-07T10:14:46.195Z,170
2018-05-07T10:15:54.272Z,170
2018-05-07T10:17:02.386Z,170
2018-05-07T10:18:10.397Z,170
2018-05-07T10:19:18.458Z,170
2018-05-07T10:20:26.527Z,170
2018-05-07T10:21:34.600Z,170
2018-05-07T10:22:42.665Z,170
2018-05-07T10:23:50.729Z,165
2018-05-07T10:24:58.804Z,165
2018-05-07T10:26:06.869Z,165
2018-05-07T10:27:14.950Z,170
2018-05-07T10:28:23.014Z,170
2018-05-07T10:29:31.075Z,165
2018-05-07T10:30:39.145Z,170
2018-05-07T10:31:47.214Z,170
2018-05-07T10:32:55.280Z,170
2018-05-07T10:34:03.365Z,175
2018-05-07T10:35:11.416Z,165
2018-05-07T10:36:19.486Z,165
2018-05-07T10:37:27.623Z,170
2018-05-07T10:38:35.628Z,170
2018-05-07T10:39:43.695Z,165
2018-05-07T10:40:51.735Z,170
2018-05-07T10:41:59.839Z,170
2018-05-07T10:43:07.914Z,170
2018-05-07T10:44:15.991Z,170
2018-05-07T10:45:24.035Z,170
2018-05-07T10:46:32.083Z,170
2018-05-07T10:47:40.177Z,170
2018-05-07T10:48:48.249Z,170
2018-05-07T10:49:56.317Z,170
2018-05-07T10:51:04.384Z,170
2018-05-07T10:52:12.462Z,165
2018-05-07T10:53:20.529Z,170
2018-05-07T10:54:28.590Z,170
2018-05-07T10:55:36.679Z,170
2018-05-07T10:56:44.731Z,170
2018-05-07T10:57:52.800Z,170
2018-05-07T10:59:00.892Z,175
2018-05-07T11:00:08.941Z,165
2018-05-07T11:01:17.009Z,165
2018-05-07T11:02:25.072Z,165
2018-05-07T11:03:33.137Z,165
2018-05-07T11:04:41.228Z,165
2018-05-07T11:05:49.288Z,165
2018-05-07T11:06:57.362Z,165
2018-05-07T11:08:05.425Z,165
2018-05-07T11:09:13.480Z,170
2018-05-07T11:10:21.542Z,165
2018-05-07T11:11:29.672Z,165
2018-05-07T11:12:37.685Z,165
2018-05-07T11:13:45.775Z,165
2018-05-07T11:14:53.843Z,165
2018-05-07T11:16:01.869Z,165
2018-05-07T11:17:09.965Z,165
2018-05-07T11:18:18.039Z,160
2018-05-07T11:19:26.117Z,160
2018-05-07T11:20:34.178Z,160
2018-05-07T11:21:42.241Z,160
2018-05-07T11:22:50.308Z,160
2018-05-07T11:23:58.399Z,160
2018-05-07T11:25:06.452Z,160
2018-05-07T11:26:14.525Z,160
2018-05-07T11:27:22.583Z,160
2018-05-07T11:28:30.660Z,160
2018-05-07T11:29:38.721Z,160
2018-05-07T11:30:46.793Z,160
2018-05-07T11:31:54.878Z,160
2018-05-07T11:33:02.943Z,160
2018-05-07T11:34:11.004Z,160
2018-05-07T11:35:19.067Z,160
2018-05-07T11:36:27.148Z,160
2018-05-07T11:37:35.230Z,165
2018-05-07T11:38:43.297Z,160
2018-05-07T11:39:51.346Z,155
2018-05-07T11:40:59.440Z,155
2018-05-07T11:42:07.492Z,155
2018-05-07T11:43:15.566Z,155
2018-05-07T11:44:23.633Z,160
2018-05-07T11:45:31.672Z,155
2018-05-07T11:46:39.781Z,155
2018-05-07T11:47:47.917Z,155
2018-05-07T11:48:55.909Z,155
2018-05-07T11:50:03.983Z,155
2018-05-07T11:51:12.018Z,155
2018-05-07T11:52:20.120Z,155
2018-05-07T11:53:28.212Z,155
2018-05-07T11:54:36.251Z,155
2018-05-07T11:55:44.327Z,155
2018-05-07T11:56:52.393Z,155
2018-05-07T11:58:00.498Z,155
2018-05-07T11:59:08.528Z,155
2018-05-07T12:00:16.601Z,155
2018-05-07T12:01:24.684Z,150
2018-05-07T12:02:32.805Z,150
2018-05-07T12:03:40.806Z,150
2018-05-07T12:04:48.877Z,150
2018-05-07T12:05:56.951Z,150
2018-05-07T12:07:05.010Z,150
2018-05-07T12:08:13.077Z,150
2018-05-07T12:09:21.164Z,150
2018-05-07T12:10:29.224Z,150
2018-05-07T12:11:37.305Z,150
2018-05-07T12:12:45.355Z,150
2018-05-07T12:13:53.446Z,150
2018-05-07T12:15:01.473Z,150
2018-05-07T12:16:09.678Z,150
2018-05-07T12:17:17.653Z,145
2018-05-07T12:18:25.722Z,145
2018-05-07T12:19:33.793Z,150
2018-05-07T12:20:41.846Z,145
2018-05-07T12:21:49.926Z,145
2018-05-07T12:22:57.994Z,145
2018-05-07T12:24:06.059Z,145
2018-05-07T12:25:14.131Z,145
2018-05-07T12:26:22.182Z,145
2018-05-07T12:27:30.279Z,145
2018-05-07T12:28:38.344Z,145
2018-05-07T12:29:46.404Z,145
2018-05-07T12:30:54.478Z,145
2018-05-07T12:32:02.563Z,145
2018-05-07T12:33:10.614Z,145
2018-05-07T12:34:18.679Z,145
2018-05-07T12:35:26.746Z,145
2018-05-07T12:36:34.835Z,145
2018-05-07T12:37:42.897Z,145
2018-05-07T12:38:50.973Z,145
2018-05-07T12:39:59.038Z,140
2018-05-07T12:41:07.131Z,140
2018-05-07T12:42:15.181Z,140
2018-05-07T12:43:23.247Z,145
2018-05-07T12:44:31.327Z,140
2018-05-07T12:45:39.398Z,140
2018-05-07T12:46:47.483Z,140
2018-05-07T12:47:55.526Z,140
2018-05-07T12:49:03.607Z,140
2018-05-07T12:50:11.638Z,140
2018-05-07T12:51:19.740Z,140
2018-05-07T12:52:27.911Z,140
2018-05-07T12:53:35.880Z,140
2018-05-07T12:54:43.942Z,140
2018-05-07T12:55:51.991Z,140
2018-05-07T12:57:00.101Z,140
2018-05-07T12:58:08.148Z,140
2018-05-07T12:59:16.228Z,140
2018-05-07T13:00:24.300Z,140
2018-05-07T13:01:32.362Z,140
2018-05-07T13:02:40.460Z,140
2018-05-07T13:03:48.507Z,140
2018-05-07T13:04:56.562Z,140
2018-05-07T13:06:04.642Z,140
2018-05-07T13:07:12.724Z,140
2018-05-07T13:08:20.787Z,135
2018-05-07T13:09:28.847Z,135
2018-05-07T13:10:36.927Z,135
2018-05-07T13:11:44.994Z,135
2018-05-07T13:12:53.069Z,135
2018-05-07T13:14:01.136Z,135
2018-05-07T13:15:09.197Z,140
2018-05-07T13:16:17.270Z,140
2018-05-07T13:17:25.344Z,135
2018-05-07T13:18:33.402Z,135
2018-05-07T13:19:41.459Z,135
2018-05-07T13:20:49.554Z,135
2018-05-07T13:21:57.624Z,135
2018-05-07T13:23:05.679Z,135
2018-05-07T13:24:13.762Z,135
2018-05-07T13:25:21.793Z,135
2018-05-07T13:26:29.942Z,135
2018-05-07T13:27:37.967Z,135
2018-05-07T13:28:46.025Z,130
2018-05-07T13:29:54.094Z,130
2018-05-07T13:31:02.166Z,130
2018-05-07T13:32:10.234Z,135
2018-05-07T13:33:18.327Z,130
2018-05-07T13:34:26.387Z,130
2018-05-07T13:35:34.454Z,130
2018-05-07T13:36:42.566Z,130
2018-05-07T13:37:50.591Z,130
2018-05-07T13:38:58.658Z,135
2018-05-07T13:40:06.732Z,130
2018-05-07T13:41:14.802Z,130
2018-05-07T13:42:22.874Z,130
2018-05-07T13:43:30.942Z,130
2018-05-07T13:44:39.014Z,130
2018-05-07T13:45:47.081Z,130
2018-05-07T13:46:55.155Z,130
2018-05-07T13:48:03.209Z,130
2018-05-07T13:49:11.300Z,130
2018-05-07T13:50:19.348Z,125
2018-05-07T13:51:27.446Z,130
2018-05-07T13:52:35.504Z,130
2018-05-07T13:53:43.570Z,130
2018-05-07T13:54:51.608Z,130
2018-05-07T13:55:59.708Z,130
2018-05-07T13:57:07.779Z,130
2018-05-07T13:58:15.851Z,125
2018-05-07T13:59:23.915Z,125
2018-05-07T14:00:31.959Z,125
2018-05-07T14:01:40.048Z,125
2018-05-07T14:02:48.172Z,125
2018-05-07T14:03:56.187Z,125
2018-05-07T14:05:04.255Z,125
2018-05-07T14:06:12.334Z,125
2018-05-07T14:07:20.408Z,125
2018-05-07T14:08:28.537Z,125
2018-05-07T14:09:36.540Z,125
2018-05-07T14:10:44.609Z,125
2018-05-07T14:11:52.676Z,125
2018-05-07T14:13:00.746Z,125
2018-05-07T14:14:08.817Z,125
2018-05-07T14:15:16.915Z,125
2018-05-07T14:16:24.965Z,130
2018-05-07T14:17:33.026Z,125
2018-05-07T14:18:41.098Z,125
2018-05-07T14:19:49.153Z,125
2018-05-07T14:20:57.261Z,125
2018-05-07T14:22:05.312Z,125
2018-05-07T14:23:13.364Z,125
2018-05-07T14:24:21.416Z,125
2018-05-07T14:25:29.516Z,125
2018-05-07T14:26:37.579Z,125
2018-05-07T14:27:45.644Z,125
2018-05-07T14:28:53.714Z,125
2018-05-07T14:30:01.768Z,125
2018-05-07T14:31:09.875Z,125
2018-05-07T14:32:17.947Z,125
2018-05-07T14:33:26.043Z,120
2018-05-07T14:34:34.071Z,120
2018-05-07T14:35:42.140Z,120
2018-05-07T14:36:50.197Z,125
2018-05-07T14:37:58.282Z,125
2018-05-07T14:39:06.364Z,125
2018-05-07T14:40:14.403Z,125
2018-05-07T14:41:22.480Z,125
2018-05-07T14:42:30.549Z,125
2018-05-07T14:43:38.640Z,130
2018-05-07T14:44:46.696Z,130
2018-05-07T14:45:54.766Z,135
2018-05-07T14:47:02.820Z,140
2018-05-07T14:48:10.909Z,140
2018-05-07T14:49:18.968Z,145
2018-05-07T14:50:27.032Z,145
2018-05-07T14:51:35.122Z,150
2018-05-07T14:52:43.170Z,150
2018-05-07T14:53:51.237Z,160
2018-05-07T14:54:59.314Z,155
2018-05-07T14:56:07.377Z,150
2018-05-07T14:57:15.451Z,150
2018-05-07T14:58:23.526Z,150
2018-05-07T14:59:31.564Z,150
2018-05-07T15:00:39.653Z,145
2018-05-07T15:01:47.736Z,145
2018-05-07T15:02:55.794Z,135
2018-05-07T15:04:03.867Z,135
2018-05-07T15:05:11.919Z,130
2018-05-07T15:06:20.015Z,130
2018-05-07T15:07:28.076Z,135
2018-05-07T15:08:36.136Z,135
2018-05-07T15:09:44.222Z,135
2018-05-07T15:10:52.263Z,140
2018-05-07T15:12:00.371Z,145
2018-05-07T15:13:08.428Z,150
2018-05-07T15:14:16.481Z,155
2018-05-07T15:15:24.565Z,165
2018-05-07T15:16:32.615Z,165
2018-05-07T15:17:40.696Z,170
2018-05-07T15:18:48.766Z,170
2018-05-07T15:19:56.837Z,170
2018-05-07T15:21:04.906Z,165
2018-05-07T15:22:12.972Z,165
2018-05-07T15:23:21.089Z,170
2018-05-07T15:24:29.104Z,160
2018-05-07T15:25:37.172Z,155
2018-05-07T15:26:45.255Z,160
2018-05-07T15:27:53.329Z,150
2018-05-07T15:29:01.369Z,150
2018-05-07T15:30:09.458Z,150
2018-05-07T15:31:17.539Z,145
2018-05-07T15:32:25.594Z,145
2018-05-07T15:33:33.664Z,140
2018-05-07T15:34:41.728Z,135
2018-05-07T15:35:49.809Z,135
2018-05-07T15:36:57.865Z,135
2018-05-07T15:38:05.937Z,135
2018-05-07T15:39:14.029Z,130
2018-05-07T15:40:22.054Z,125
2018-05-07T15:41:30.148Z,125
2018-05-07T15:42:38.242Z,120
2018-05-07T15:43:46.401Z,115
2018-05-07T15:44:54.349Z,120
2018-05-07T15:46:02.409Z,120
2018-05-07T15:47:10.504Z,120
2018-05-07T15:48:18.555Z,120
2018-05-07T15:49:26.693Z,120
2018-05-07T15:50:34.704Z,120
2018-05-07T15:51:42.771Z,115
2018-05-07T15:52:50.848Z,115
2018-05-07T15:53:58.906Z,115
2018-05-07T15:55:06.975Z,115